sensor_id;sensor_type;location;lat;lon;timestamp;temperature;humidity
18934;DHT22;9599;53.706;10.384;2022-11-15T00:02:34;7.30;99.90
18934;DHT22;9599;53.706;10.384;2022-11-15T00:05:21;7.30;99.90
18934;DHT22;9599;53.706;10.384;2022-11-15T00:08:10;7.30;99.90
18934;DHT22;9599;53.706;10.384;2022-11-15T00:10:58;7.20;99.90
18934;DHT22;9599;53.706;10.384;2022-11-15T00:13:44;7.20;99.90
18934;DHT22;9599;53.706;10.384;2022-11-15T00:16:31;7.30;99.90
18934;DHT22;9599;53.706;10.384;2022-11-15T00:19:17;7.20;99.90
18934;DHT22;9599;53.706;10.384;2022-11-15T00:22:03;7.20;99.90
18934;DHT22;9599;53.706;10.384;2022-11-15T00:24:51;7.20;99.90
18934;DHT22;9599;53.706;10.384;2022-11-15T00:27:38;7.20;99.90
18934;DHT22;9599;53.706;10.384;2022-11-15T00:30:25;7.20;99.90
18934;DHT22;9599;53.706;10.384;2022-11-15T00:33:11;7.20;99.90
18934;DHT22;9599;53.706;10.384;2022-11-15T00:36:01;7.20;99.90
18934;DHT22;9599;53.706;10.384;2022-11-15T00:38:49;7.20;99.90
18934;DHT22;9599;53.706;10.384;2022-11-15T00:41:37;7.20;99.90
18934;DHT22;9599;53.706;10.384;2022-11-15T00:44:24;7.10;99.90
18934;DHT22;9599;53.706;10.384;2022-11-15T00:47:10;7.10;99.90
18934;DHT22;9599;53.706;10.384;2022-11-15T00:49:58;7.10;99.90
18934;DHT22;9599;53.706;10.384;2022-11-15T00:52:45;7.10;99.90
18934;DHT22;9599;53.706;10.384;2022-11-15T00:55:31;7.10;99.90
18934;DHT22;9599;53.706;10.384;2022-11-15T00:58:19;7.10;99.90
18934;DHT22;9599;53.706;10.384;2022-11-15T01:01:07;7.10;99.90
18934;DHT22;9599;53.706;10.384;2022-11-15T01:03:54;7.10;99.90
18934;DHT22;9599;53.706;10.384;2022-11-15T01:06:45;7.10;99.90
18934;DHT22;9599;53.706;10.384;2022-11-15T01:09:32;7.10;99.90
18934;DHT22;9599;53.706;10.384;2022-11-15T01:12:19;7.10;99.90
18934;DHT22;9599;53.706;10.384;2022-11-15T01:15:07;7.10;99.90
18934;DHT22;9599;53.706;10.384;2022-11-15T01:17:54;7.10;99.90
18934;DHT22;9599;53.706;10.384;2022-11-15T01:20:41;7.10;99.90
18934;DHT22;9599;53.706;10.384;2022-11-15T01:23:28;7.10;99.90
18934;DHT22;9599;53.706;10.384;2022-11-15T01:26:15;7.00;99.90
18934;DHT22;9599;53.706;10.384;2022-11-15T01:29:02;7.00;99.90
18934;DHT22;9599;53.706;10.384;2022-11-15T01:31:50;7.00;99.90
18934;DHT22;9599;53.706;10.384;2022-11-15T01:34:36;7.00;99.90
18934;DHT22;9599;53.706;10.384;2022-11-15T01:37:23;7.00;99.90
18934;DHT22;9599;53.706;10.384;2022-11-15T01:40:10;6.90;99.90
18934;DHT22;9599;53.706;10.384;2022-11-15T01:42:57;6.90;99.90
18934;DHT22;9599;53.706;10.384;2022-11-15T01:45:43;6.90;99.90
18934;DHT22;9599;53.706;10.384;2022-11-15T01:48:34;6.90;99.90
18934;DHT22;9599;53.706;10.384;2022-11-15T01:51:23;6.90;99.90
18934;DHT22;9599;53.706;10.384;2022-11-15T01:54:14;6.90;99.90
18934;DHT22;9599;53.706;10.384;2022-11-15T01:57:05;6.90;99.90
18934;DHT22;9599;53.706;10.384;2022-11-15T01:59:54;6.90;99.90
18934;DHT22;9599;53.706;10.384;2022-11-15T02:02:41;6.80;99.90
18934;DHT22;9599;53.706;10.384;2022-11-15T02:05:30;6.80;99.90
18934;DHT22;9599;53.706;10.384;2022-11-15T02:08:17;6.80;99.90
18934;DHT22;9599;53.706;10.384;2022-11-15T02:11:08;6.80;99.90
18934;DHT22;9599;53.706;10.384;2022-11-15T02:13:55;6.70;99.90
18934;DHT22;9599;53.706;10.384;2022-11-15T02:16:51;6.70;99.90
18934;DHT22;9599;53.706;10.384;2022-11-15T02:20:18;6.70;99.90
18934;DHT22;9599;53.706;10.384;2022-11-15T02:26:58;6.70;99.90
18934;DHT22;9599;53.706;10.384;2022-11-15T02:30:03;6.70;99.90
18934;DHT22;9599;53.706;10.384;2022-11-15T02:32:56;6.70;99.90
18934;DHT22;9599;53.706;10.384;2022-11-15T02:35:47;6.70;99.90
18934;DHT22;9599;53.706;10.384;2022-11-15T02:38:43;6.70;99.90
18934;DHT22;9599;53.706;10.384;2022-11-15T02:41:38;6.70;99.90
18934;DHT22;9599;53.706;10.384;2022-11-15T02:44:30;6.60;99.90
18934;DHT22;9599;53.706;10.384;2022-11-15T02:47:19;6.60;99.90
18934;DHT22;9599;53.706;10.384;2022-11-15T02:50:10;6.60;99.90
18934;DHT22;9599;53.706;10.384;2022-11-15T02:52:57;6.70;99.90
18934;DHT22;9599;53.706;10.384;2022-11-15T02:55:46;6.60;99.90
18934;DHT22;9599;53.706;10.384;2022-11-15T02:59:00;6.60;99.90
18934;DHT22;9599;53.706;10.384;2022-11-15T03:02:02;6.60;99.90
18934;DHT22;9599;53.706;10.384;2022-11-15T03:04:54;6.60;99.90
18934;DHT22;9599;53.706;10.384;2022-11-15T03:07:48;6.50;99.90
18934;DHT22;9599;53.706;10.384;2022-11-15T03:10:45;6.50;99.90
18934;DHT22;9599;53.706;10.384;2022-11-15T03:13:37;6.50;99.90
18934;DHT22;9599;53.706;10.384;2022-11-15T03:16:28;6.50;99.90
18934;DHT22;9599;53.706;10.384;2022-11-15T03:19:23;6.50;99.90
18934;DHT22;9599;53.706;10.384;2022-11-15T03:22:15;6.50;99.90
18934;DHT22;9599;53.706;10.384;2022-11-15T03:25:06;6.50;99.90
18934;DHT22;9599;53.706;10.384;2022-11-15T03:27:57;6.40;99.90
18934;DHT22;9599;53.706;10.384;2022-11-15T03:30:46;6.50;99.90
18934;DHT22;9599;53.706;10.384;2022-11-15T03:33:34;6.40;99.90
18934;DHT22;9599;53.706;10.384;2022-11-15T03:36:22;6.40;99.90
18934;DHT22;9599;53.706;10.384;2022-11-15T03:39:10;6.50;99.90
18934;DHT22;9599;53.706;10.384;2022-11-15T03:42:14;6.40;99.90
18934;DHT22;9599;53.706;10.384;2022-11-15T03:45:08;6.40;99.90
18934;DHT22;9599;53.706;10.384;2022-11-15T03:48:00;6.40;99.90
18934;DHT22;9599;53.706;10.384;2022-11-15T03:50:49;6.40;99.90
18934;DHT22;9599;53.706;10.384;2022-11-15T03:53:35;6.40;99.90
18934;DHT22;9599;53.706;10.384;2022-11-15T03:56:22;6.40;99.90
18934;DHT22;9599;53.706;10.384;2022-11-15T03:59:10;6.40;99.90
18934;DHT22;9599;53.706;10.384;2022-11-15T04:01:56;6.40;99.90
18934;DHT22;9599;53.706;10.384;2022-11-15T04:04:42;6.40;99.90
18934;DHT22;9599;53.706;10.384;2022-11-15T04:07:29;6.40;99.90
18934;DHT22;9599;53.706;10.384;2022-11-15T04:10:16;6.30;99.90
18934;DHT22;9599;53.706;10.384;2022-11-15T04:13:03;6.30;99.90
18934;DHT22;9599;53.706;10.384;2022-11-15T04:15:51;6.40;99.90
18934;DHT22;9599;53.706;10.384;2022-11-15T04:18:37;6.30;99.90
18934;DHT22;9599;53.706;10.384;2022-11-15T04:21:24;6.40;99.90
18934;DHT22;9599;53.706;10.384;2022-11-15T04:24:28;6.30;99.90
18934;DHT22;9599;53.706;10.384;2022-11-15T04:27:14;6.30;99.90
18934;DHT22;9599;53.706;10.384;2022-11-15T04:30:01;6.30;99.90
18934;DHT22;9599;53.706;10.384;2022-11-15T04:32:49;6.20;99.90
18934;DHT22;9599;53.706;10.384;2022-11-15T04:35:35;6.20;99.90
18934;DHT22;9599;53.706;10.384;2022-11-15T04:38:22;6.20;99.90
18934;DHT22;9599;53.706;10.384;2022-11-15T04:41:08;6.20;99.90
18934;DHT22;9599;53.706;10.384;2022-11-15T04:43:55;6.20;99.90
18934;DHT22;9599;53.706;10.384;2022-11-15T04:46:42;6.20;99.90
18934;DHT22;9599;53.706;10.384;2022-11-15T04:49:30;6.30;99.90
18934;DHT22;9599;53.706;10.384;2022-11-15T04:52:16;6.30;99.90
18934;DHT22;9599;53.706;10.384;2022-11-15T04:55:03;6.20;99.90
18934;DHT22;9599;53.706;10.384;2022-11-15T04:57:59;6.20;99.90
18934;DHT22;9599;53.706;10.384;2022-11-15T05:00:45;6.30;99.90
18934;DHT22;9599;53.706;10.384;2022-11-15T05:03:32;6.20;99.90
18934;DHT22;9599;53.706;10.384;2022-11-15T05:06:38;6.20;99.90
18934;DHT22;9599;53.706;10.384;2022-11-15T05:09:24;6.20;99.90
18934;DHT22;9599;53.706;10.384;2022-11-15T05:12:10;6.30;99.90
18934;DHT22;9599;53.706;10.384;2022-11-15T05:14:57;6.30;99.90
18934;DHT22;9599;53.706;10.384;2022-11-15T05:17:43;6.40;99.90
18934;DHT22;9599;53.706;10.384;2022-11-15T05:20:30;6.40;99.90
18934;DHT22;9599;53.706;10.384;2022-11-15T05:23:18;6.50;99.90
18934;DHT22;9599;53.706;10.384;2022-11-15T05:26:06;6.50;99.90
18934;DHT22;9599;53.706;10.384;2022-11-15T05:28:54;6.50;99.90
18934;DHT22;9599;53.706;10.384;2022-11-15T05:31:41;6.60;99.90
18934;DHT22;9599;53.706;10.384;2022-11-15T05:34:28;6.60;99.90
18934;DHT22;9599;53.706;10.384;2022-11-15T05:37:14;6.60;99.90
18934;DHT22;9599;53.706;10.384;2022-11-15T05:40:03;6.60;99.90
18934;DHT22;9599;53.706;10.384;2022-11-15T05:42:49;6.60;99.90
18934;DHT22;9599;53.706;10.384;2022-11-15T05:45:36;6.60;99.90
18934;DHT22;9599;53.706;10.384;2022-11-15T05:48:23;6.70;99.90
18934;DHT22;9599;53.706;10.384;2022-11-15T05:51:09;6.70;99.90
18934;DHT22;9599;53.706;10.384;2022-11-15T05:53:58;6.70;99.90
18934;DHT22;9599;53.706;10.384;2022-11-15T05:56:47;6.80;99.90
18934;DHT22;9599;53.706;10.384;2022-11-15T05:59:35;6.80;99.90
18934;DHT22;9599;53.706;10.384;2022-11-15T06:02:22;6.80;99.90
18934;DHT22;9599;53.706;10.384;2022-11-15T06:05:08;6.80;99.90
18934;DHT22;9599;53.706;10.384;2022-11-15T06:07:57;6.80;99.90
18934;DHT22;9599;53.706;10.384;2022-11-15T06:10:44;6.80;99.90
18934;DHT22;9599;53.706;10.384;2022-11-15T06:13:33;6.80;99.90
18934;DHT22;9599;53.706;10.384;2022-11-15T06:16:19;6.80;99.90
18934;DHT22;9599;53.706;10.384;2022-11-15T06:19:06;6.90;99.90
18934;DHT22;9599;53.706;10.384;2022-11-15T06:21:52;6.90;99.90
18934;DHT22;9599;53.706;10.384;2022-11-15T06:24:39;6.90;99.90
18934;DHT22;9599;53.706;10.384;2022-11-15T06:27:25;6.90;99.90
18934;DHT22;9599;53.706;10.384;2022-11-15T06:30:14;6.90;99.90
18934;DHT22;9599;53.706;10.384;2022-11-15T06:33:01;6.90;99.90
18934;DHT22;9599;53.706;10.384;2022-11-15T06:35:48;6.90;99.90
18934;DHT22;9599;53.706;10.384;2022-11-15T06:38:35;7.00;99.90
18934;DHT22;9599;53.706;10.384;2022-11-15T06:41:22;7.00;99.90
18934;DHT22;9599;53.706;10.384;2022-11-15T06:44:08;7.00;99.90
18934;DHT22;9599;53.706;10.384;2022-11-15T06:46:56;7.00;99.90
18934;DHT22;9599;53.706;10.384;2022-11-15T06:49:43;7.00;99.90
18934;DHT22;9599;53.706;10.384;2022-11-15T06:52:29;7.00;99.90
18934;DHT22;9599;53.706;10.384;2022-11-15T06:55:17;7.00;99.90
18934;DHT22;9599;53.706;10.384;2022-11-15T06:58:04;7.10;99.90
18934;DHT22;9599;53.706;10.384;2022-11-15T07:00:50;7.10;99.90
18934;DHT22;9599;53.706;10.384;2022-11-15T07:03:40;7.10;99.90
18934;DHT22;9599;53.706;10.384;2022-11-15T07:06:26;7.10;99.90
18934;DHT22;9599;53.706;10.384;2022-11-15T07:09:13;7.10;99.90
18934;DHT22;9599;53.706;10.384;2022-11-15T07:12:00;7.10;99.90
18934;DHT22;9599;53.706;10.384;2022-11-15T07:14:52;7.10;99.90
18934;DHT22;9599;53.706;10.384;2022-11-15T07:17:38;7.10;99.90
18934;DHT22;9599;53.706;10.384;2022-11-15T07:20:26;7.10;99.90
18934;DHT22;9599;53.706;10.384;2022-11-15T07:23:13;7.10;99.90
18934;DHT22;9599;53.706;10.384;2022-11-15T07:26:00;7.10;99.90
18934;DHT22;9599;53.706;10.384;2022-11-15T07:28:47;7.20;99.90
18934;DHT22;9599;53.706;10.384;2022-11-15T07:31:33;7.10;99.90
18934;DHT22;9599;53.706;10.384;2022-11-15T07:34:20;7.20;99.90
18934;DHT22;9599;53.706;10.384;2022-11-15T07:37:08;7.20;99.90
18934;DHT22;9599;53.706;10.384;2022-11-15T07:39:55;7.20;99.90
18934;DHT22;9599;53.706;10.384;2022-11-15T07:42:42;7.30;99.90
18934;DHT22;9599;53.706;10.384;2022-11-15T07:45:42;7.30;99.90
18934;DHT22;9599;53.706;10.384;2022-11-15T07:48:29;7.30;99.90
18934;DHT22;9599;53.706;10.384;2022-11-15T07:51:28;7.30;99.90
18934;DHT22;9599;53.706;10.384;2022-11-15T07:54:16;7.30;99.90
18934;DHT22;9599;53.706;10.384;2022-11-15T07:57:02;7.40;99.90
18934;DHT22;9599;53.706;10.384;2022-11-15T07:59:52;7.40;99.90
18934;DHT22;9599;53.706;10.384;2022-11-15T08:02:38;7.50;99.90
18934;DHT22;9599;53.706;10.384;2022-11-15T08:05:25;7.60;99.90
18934;DHT22;9599;53.706;10.384;2022-11-15T08:08:12;7.60;99.90
18934;DHT22;9599;53.706;10.384;2022-11-15T08:11:00;7.60;99.90
18934;DHT22;9599;53.706;10.384;2022-11-15T08:13:47;7.70;99.90
18934;DHT22;9599;53.706;10.384;2022-11-15T08:16:33;7.70;99.90
18934;DHT22;9599;53.706;10.384;2022-11-15T08:19:20;7.70;99.90
18934;DHT22;9599;53.706;10.384;2022-11-15T08:22:07;7.80;99.90
18934;DHT22;9599;53.706;10.384;2022-11-15T08:24:53;7.80;99.90
18934;DHT22;9599;53.706;10.384;2022-11-15T08:27:41;7.80;99.90
18934;DHT22;9599;53.706;10.384;2022-11-15T08:30:28;7.80;99.90
18934;DHT22;9599;53.706;10.384;2022-11-15T08:33:15;7.80;99.90
18934;DHT22;9599;53.706;10.384;2022-11-15T08:36:01;7.90;99.90
18934;DHT22;9599;53.706;10.384;2022-11-15T08:38:48;7.90;99.90
18934;DHT22;9599;53.706;10.384;2022-11-15T08:41:36;7.90;99.90
18934;DHT22;9599;53.706;10.384;2022-11-15T08:44:24;7.90;99.90
18934;DHT22;9599;53.706;10.384;2022-11-15T08:47:12;8.00;99.90
18934;DHT22;9599;53.706;10.384;2022-11-15T08:49:58;8.00;99.90
18934;DHT22;9599;53.706;10.384;2022-11-15T08:52:45;8.00;99.90
18934;DHT22;9599;53.706;10.384;2022-11-15T08:55:36;8.00;99.90
18934;DHT22;9599;53.706;10.384;2022-11-15T08:58:23;8.00;99.90
18934;DHT22;9599;53.706;10.384;2022-11-15T09:01:17;8.10;99.90
18934;DHT22;9599;53.706;10.384;2022-11-15T09:04:04;8.10;99.90
18934;DHT22;9599;53.706;10.384;2022-11-15T09:06:50;8.10;99.90
18934;DHT22;9599;53.706;10.384;2022-11-15T09:09:37;8.10;99.90
18934;DHT22;9599;53.706;10.384;2022-11-15T09:12:24;8.20;99.90
18934;DHT22;9599;53.706;10.384;2022-11-15T09:15:10;8.20;99.90
18934;DHT22;9599;53.706;10.384;2022-11-15T09:17:59;8.20;99.90
18934;DHT22;9599;53.706;10.384;2022-11-15T09:20:46;8.20;99.90
18934;DHT22;9599;53.706;10.384;2022-11-15T09:23:33;8.30;99.90
18934;DHT22;9599;53.706;10.384;2022-11-15T09:26:19;8.30;99.90
18934;DHT22;9599;53.706;10.384;2022-11-15T09:29:06;8.40;99.90
18934;DHT22;9599;53.706;10.384;2022-11-15T09:31:52;8.40;99.90
18934;DHT22;9599;53.706;10.384;2022-11-15T09:34:40;8.50;99.90
18934;DHT22;9599;53.706;10.384;2022-11-15T09:37:27;8.50;99.90
18934;DHT22;9599;53.706;10.384;2022-11-15T09:40:14;8.60;99.90
18934;DHT22;9599;53.706;10.384;2022-11-15T09:43:20;8.60;99.90
18934;DHT22;9599;53.706;10.384;2022-11-15T09:46:15;8.60;99.90
18934;DHT22;9599;53.706;10.384;2022-11-15T09:49:06;8.70;99.90
18934;DHT22;9599;53.706;10.384;2022-11-15T09:52:00;8.70;99.90
18934;DHT22;9599;53.706;10.384;2022-11-15T09:54:30;8.70;99.90
18934;DHT22;9599;53.706;10.384;2022-11-15T10:00:11;8.80;99.90
18934;DHT22;9599;53.706;10.384;2022-11-15T10:03:09;8.80;99.90
18934;DHT22;9599;53.706;10.384;2022-11-15T10:05:41;8.90;99.90
18934;DHT22;9599;53.706;10.384;2022-11-15T10:11:06;8.90;99.90
18934;DHT22;9599;53.706;10.384;2022-11-15T10:13:58;9.00;99.90
18934;DHT22;9599;53.706;10.384;2022-11-15T10:16:45;9.10;99.90
18934;DHT22;9599;53.706;10.384;2022-11-15T10:19:21;9.10;99.90
18934;DHT22;9599;53.706;10.384;2022-11-15T10:21:58;9.10;99.90
18934;DHT22;9599;53.706;10.384;2022-11-15T10:24:34;9.20;99.90
18934;DHT22;9599;53.706;10.384;2022-11-15T10:27:07;9.30;99.90
18934;DHT22;9599;53.706;10.384;2022-11-15T10:29:42;9.30;99.90
18934;DHT22;9599;53.706;10.384;2022-11-15T10:32:12;9.30;99.90
18934;DHT22;9599;53.706;10.384;2022-11-15T10:34:40;9.40;99.90
18934;DHT22;9599;53.706;10.384;2022-11-15T10:37:08;9.50;99.90
18934;DHT22;9599;53.706;10.384;2022-11-15T10:39:38;9.60;99.90
18934;DHT22;9599;53.706;10.384;2022-11-15T10:42:17;9.60;99.90
18934;DHT22;9599;53.706;10.384;2022-11-15T10:44:45;9.60;99.90
18934;DHT22;9599;53.706;10.384;2022-11-15T10:47:31;9.70;99.90
18934;DHT22;9599;53.706;10.384;2022-11-15T10:50:07;9.70;99.90
18934;DHT22;9599;53.706;10.384;2022-11-15T10:52:52;9.80;99.90
18934;DHT22;9599;53.706;10.384;2022-11-15T10:55:25;9.90;99.90
18934;DHT22;9599;53.706;10.384;2022-11-15T10:57:56;9.90;99.90
18934;DHT22;9599;53.706;10.384;2022-11-15T11:00:30;10.00;99.90
18934;DHT22;9599;53.706;10.384;2022-11-15T11:03:00;10.10;99.90
18934;DHT22;9599;53.706;10.384;2022-11-15T11:05:31;10.10;99.90
18934;DHT22;9599;53.706;10.384;2022-11-15T11:08:22;10.10;99.90
18934;DHT22;9599;53.706;10.384;2022-11-15T11:10:56;10.20;99.90
18934;DHT22;9599;53.706;10.384;2022-11-15T11:13:30;10.20;99.90
18934;DHT22;9599;53.706;10.384;2022-11-15T11:16:21;10.30;99.90
18934;DHT22;9599;53.706;10.384;2022-11-15T11:19:02;10.30;99.90
18934;DHT22;9599;53.706;10.384;2022-11-15T11:21:40;10.30;99.90
18934;DHT22;9599;53.706;10.384;2022-11-15T11:24:14;10.40;99.90
18934;DHT22;9599;53.706;10.384;2022-11-15T11:26:58;10.40;99.90
18934;DHT22;9599;53.706;10.384;2022-11-15T11:29:41;10.40;99.90
18934;DHT22;9599;53.706;10.384;2022-11-15T11:32:27;10.50;99.90
18934;DHT22;9599;53.706;10.384;2022-11-15T11:35:05;10.50;99.90
18934;DHT22;9599;53.706;10.384;2022-11-15T11:37:41;10.60;99.90
18934;DHT22;9599;53.706;10.384;2022-11-15T11:40:20;10.60;99.90
18934;DHT22;9599;53.706;10.384;2022-11-15T11:42:55;10.60;99.90
18934;DHT22;9599;53.706;10.384;2022-11-15T11:45:42;10.70;99.90
18934;DHT22;9599;53.706;10.384;2022-11-15T11:48:14;10.70;99.90
18934;DHT22;9599;53.706;10.384;2022-11-15T11:50:48;10.80;99.90
18934;DHT22;9599;53.706;10.384;2022-11-15T11:53:24;10.80;99.90
18934;DHT22;9599;53.706;10.384;2022-11-15T11:55:54;10.80;99.90
18934;DHT22;9599;53.706;10.384;2022-11-15T11:58:33;10.90;99.90
18934;DHT22;9599;53.706;10.384;2022-11-15T12:01:07;10.90;99.90
18934;DHT22;9599;53.706;10.384;2022-11-15T12:03:43;11.00;99.90
18934;DHT22;9599;53.706;10.384;2022-11-15T12:06:21;11.00;99.90
18934;DHT22;9599;53.706;10.384;2022-11-15T12:08:53;11.10;99.90
18934;DHT22;9599;53.706;10.384;2022-11-15T12:11:28;11.10;99.90
18934;DHT22;9599;53.706;10.384;2022-11-15T12:14:01;11.20;99.90
18934;DHT22;9599;53.706;10.384;2022-11-15T12:16:30;11.20;99.90
18934;DHT22;9599;53.706;10.384;2022-11-15T12:19:01;11.20;99.90
18934;DHT22;9599;53.706;10.384;2022-11-15T12:21:36;11.30;99.90
18934;DHT22;9599;53.706;10.384;2022-11-15T12:24:11;11.30;99.90
18934;DHT22;9599;53.706;10.384;2022-11-15T12:26:44;11.30;99.90
18934;DHT22;9599;53.706;10.384;2022-11-15T12:29:19;11.30;99.90
18934;DHT22;9599;53.706;10.384;2022-11-15T12:31:50;11.40;99.90
18934;DHT22;9599;53.706;10.384;2022-11-15T12:34:46;11.40;99.90
18934;DHT22;9599;53.706;10.384;2022-11-15T12:40:32;11.50;99.90
18934;DHT22;9599;53.706;10.384;2022-11-15T12:46:03;11.60;99.90
18934;DHT22;9599;53.706;10.384;2022-11-15T12:48:55;11.70;99.90
18934;DHT22;9599;53.706;10.384;2022-11-15T12:54:57;11.80;99.90
18934;DHT22;9599;53.706;10.384;2022-11-15T12:57:44;11.90;99.90
18934;DHT22;9599;53.706;10.384;2022-11-15T13:00:45;11.90;99.90
18934;DHT22;9599;53.706;10.384;2022-11-15T13:03:21;11.90;99.90
18934;DHT22;9599;53.706;10.384;2022-11-15T13:06:04;11.90;99.90
18934;DHT22;9599;53.706;10.384;2022-11-15T13:08:41;12.00;99.90
18934;DHT22;9599;53.706;10.384;2022-11-15T13:11:45;11.90;99.90
18934;DHT22;9599;53.706;10.384;2022-11-15T13:14:43;12.00;99.90
18934;DHT22;9599;53.706;10.384;2022-11-15T13:20:19;12.00;99.90
18934;DHT22;9599;53.706;10.384;2022-11-15T13:22:49;11.90;99.90
18934;DHT22;9599;53.706;10.384;2022-11-15T13:25:58;11.90;99.90
18934;DHT22;9599;53.706;10.384;2022-11-15T13:28:32;11.90;99.90
18934;DHT22;9599;53.706;10.384;2022-11-15T13:31:13;11.90;99.90
18934;DHT22;9599;53.706;10.384;2022-11-15T13:33:43;12.00;99.90
18934;DHT22;9599;53.706;10.384;2022-11-15T13:36:17;11.90;99.90
18934;DHT22;9599;53.706;10.384;2022-11-15T13:38:54;11.90;99.90
18934;DHT22;9599;53.706;10.384;2022-11-15T13:41:25;11.90;99.90
18934;DHT22;9599;53.706;10.384;2022-11-15T13:43:53;11.90;99.90
18934;DHT22;9599;53.706;10.384;2022-11-15T13:46:24;12.00;99.90
18934;DHT22;9599;53.706;10.384;2022-11-15T13:48:54;11.90;99.90
18934;DHT22;9599;53.706;10.384;2022-11-15T13:51:30;11.90;99.90
18934;DHT22;9599;53.706;10.384;2022-11-15T13:54:03;11.90;99.90
18934;DHT22;9599;53.706;10.384;2022-11-15T13:56:35;11.90;99.90
18934;DHT22;9599;53.706;10.384;2022-11-15T13:59:09;11.90;99.90
18934;DHT22;9599;53.706;10.384;2022-11-15T14:01:41;11.90;99.90
18934;DHT22;9599;53.706;10.384;2022-11-15T14:04:12;12.00;99.90
18934;DHT22;9599;53.706;10.384;2022-11-15T14:06:48;12.00;99.90
18934;DHT22;9599;53.706;10.384;2022-11-15T14:09:31;12.00;99.90
18934;DHT22;9599;53.706;10.384;2022-11-15T14:12:01;11.90;99.90
18934;DHT22;9599;53.706;10.384;2022-11-15T14:14:29;11.90;99.90
18934;DHT22;9599;53.706;10.384;2022-11-15T14:16:59;11.90;99.90
18934;DHT22;9599;53.706;10.384;2022-11-15T14:19:37;11.90;99.90
18934;DHT22;9599;53.706;10.384;2022-11-15T14:22:16;11.90;99.90
18934;DHT22;9599;53.706;10.384;2022-11-15T14:27:31;11.90;99.90
18934;DHT22;9599;53.706;10.384;2022-11-15T14:30:00;11.90;99.90
18934;DHT22;9599;53.706;10.384;2022-11-15T14:32:29;11.90;99.90
18934;DHT22;9599;53.706;10.384;2022-11-15T14:34:59;11.90;99.90
18934;DHT22;9599;53.706;10.384;2022-11-15T14:37:30;11.90;99.90
18934;DHT22;9599;53.706;10.384;2022-11-15T14:40:00;11.80;99.90
18934;DHT22;9599;53.706;10.384;2022-11-15T14:42:28;11.80;99.90
18934;DHT22;9599;53.706;10.384;2022-11-15T14:44:56;11.80;99.90
18934;DHT22;9599;53.706;10.384;2022-11-15T14:47:24;11.70;99.90
18934;DHT22;9599;53.706;10.384;2022-11-15T14:49:52;11.70;99.90
18934;DHT22;9599;53.706;10.384;2022-11-15T14:52:25;11.70;99.90
18934;DHT22;9599;53.706;10.384;2022-11-15T14:55:00;11.60;99.90
18934;DHT22;9599;53.706;10.384;2022-11-15T14:57:30;11.60;99.90
18934;DHT22;9599;53.706;10.384;2022-11-15T14:59:58;11.50;99.90
18934;DHT22;9599;53.706;10.384;2022-11-15T15:02:38;11.60;99.90
18934;DHT22;9599;53.706;10.384;2022-11-15T15:05:14;11.50;99.90
18934;DHT22;9599;53.706;10.384;2022-11-15T15:07:42;11.50;99.90
18934;DHT22;9599;53.706;10.384;2022-11-15T15:10:12;11.50;99.90
18934;DHT22;9599;53.706;10.384;2022-11-15T15:13:00;11.50;99.90
18934;DHT22;9599;53.706;10.384;2022-11-15T15:15:34;11.50;99.90
18934;DHT22;9599;53.706;10.384;2022-11-15T15:18:03;11.40;99.90
18934;DHT22;9599;53.706;10.384;2022-11-15T15:20:31;11.40;99.90
18934;DHT22;9599;53.706;10.384;2022-11-15T15:22:59;11.40;99.90
18934;DHT22;9599;53.706;10.384;2022-11-15T15:25:30;11.30;99.90
18934;DHT22;9599;53.706;10.384;2022-11-15T15:27:59;11.30;99.90
18934;DHT22;9599;53.706;10.384;2022-11-15T15:30:29;11.30;99.90
18934;DHT22;9599;53.706;10.384;2022-11-15T15:32:57;11.30;99.90
18934;DHT22;9599;53.706;10.384;2022-11-15T15:35:29;11.20;99.90
18934;DHT22;9599;53.706;10.384;2022-11-15T15:37:57;11.20;99.90
18934;DHT22;9599;53.706;10.384;2022-11-15T15:40:29;11.20;99.90
18934;DHT22;9599;53.706;10.384;2022-11-15T15:42:58;11.10;99.90
18934;DHT22;9599;53.706;10.384;2022-11-15T15:45:26;11.10;99.90
18934;DHT22;9599;53.706;10.384;2022-11-15T15:47:56;11.00;99.90
18934;DHT22;9599;53.706;10.384;2022-11-15T15:50:25;11.00;99.90
18934;DHT22;9599;53.706;10.384;2022-11-15T15:52:55;11.00;99.90
18934;DHT22;9599;53.706;10.384;2022-11-15T15:55:23;10.90;99.90
18934;DHT22;9599;53.706;10.384;2022-11-15T15:57:53;10.90;99.90
18934;DHT22;9599;53.706;10.384;2022-11-15T16:00:23;10.90;99.90
18934;DHT22;9599;53.706;10.384;2022-11-15T16:02:52;10.90;99.90
18934;DHT22;9599;53.706;10.384;2022-11-15T16:05:20;10.90;99.90
18934;DHT22;9599;53.706;10.384;2022-11-15T16:07:48;10.90;99.90
18934;DHT22;9599;53.706;10.384;2022-11-15T16:10:21;10.90;99.90
18934;DHT22;9599;53.706;10.384;2022-11-15T16:12:53;10.90;99.90
18934;DHT22;9599;53.706;10.384;2022-11-15T16:15:22;10.90;99.90
18934;DHT22;9599;53.706;10.384;2022-11-15T16:17:52;11.00;99.90
18934;DHT22;9599;53.706;10.384;2022-11-15T16:20:33;11.00;99.90
18934;DHT22;9599;53.706;10.384;2022-11-15T16:23:02;11.10;99.90
18934;DHT22;9599;53.706;10.384;2022-11-15T16:25:40;11.10;99.90
18934;DHT22;9599;53.706;10.384;2022-11-15T16:28:21;11.20;99.90
18934;DHT22;9599;53.706;10.384;2022-11-15T16:30:59;11.20;99.90
18934;DHT22;9599;53.706;10.384;2022-11-15T16:33:28;11.20;99.90
18934;DHT22;9599;53.706;10.384;2022-11-15T16:35:56;11.20;99.90
18934;DHT22;9599;53.706;10.384;2022-11-15T16:38:24;11.30;99.90
18934;DHT22;9599;53.706;10.384;2022-11-15T16:40:52;11.30;99.90
18934;DHT22;9599;53.706;10.384;2022-11-15T16:43:22;11.30;99.90
18934;DHT22;9599;53.706;10.384;2022-11-15T16:45:52;11.40;99.90
18934;DHT22;9599;53.706;10.384;2022-11-15T16:48:23;11.40;99.90
18934;DHT22;9599;53.706;10.384;2022-11-15T16:50:54;11.40;99.90
18934;DHT22;9599;53.706;10.384;2022-11-15T16:53:23;11.40;99.90
18934;DHT22;9599;53.706;10.384;2022-11-15T16:55:51;11.50;99.90
18934;DHT22;9599;53.706;10.384;2022-11-15T16:58:21;11.50;99.90
18934;DHT22;9599;53.706;10.384;2022-11-15T17:00:50;11.50;99.90
18934;DHT22;9599;53.706;10.384;2022-11-15T17:03:19;11.50;99.90
18934;DHT22;9599;53.706;10.384;2022-11-15T17:05:47;11.50;99.90
18934;DHT22;9599;53.706;10.384;2022-11-15T17:08:15;11.50;99.90
18934;DHT22;9599;53.706;10.384;2022-11-15T17:10:43;11.50;99.90
18934;DHT22;9599;53.706;10.384;2022-11-15T17:13:12;11.50;99.90
18934;DHT22;9599;53.706;10.384;2022-11-15T17:15:41;11.50;99.90
18934;DHT22;9599;53.706;10.384;2022-11-15T17:18:10;11.50;99.90
18934;DHT22;9599;53.706;10.384;2022-11-15T17:20:40;11.50;99.90
18934;DHT22;9599;53.706;10.384;2022-11-15T17:23:11;11.50;99.90
18934;DHT22;9599;53.706;10.384;2022-11-15T17:25:40;11.50;99.90
18934;DHT22;9599;53.706;10.384;2022-11-15T17:28:09;11.50;99.90
18934;DHT22;9599;53.706;10.384;2022-11-15T17:30:41;11.50;99.90
18934;DHT22;9599;53.706;10.384;2022-11-15T17:33:09;11.50;99.90
18934;DHT22;9599;53.706;10.384;2022-11-15T17:35:37;11.50;99.90
18934;DHT22;9599;53.706;10.384;2022-11-15T17:38:05;11.50;99.90
18934;DHT22;9599;53.706;10.384;2022-11-15T17:40:33;11.50;99.90